sensor_id;sensor_type;location;lat;lon;timestamp;P1;durP1;ratioP1;P2;durP2;ratioP2
6414;SDS011;3240;48.790;9.210;2022-12-07T00:00:53;7.73;;;5.50;;
6414;SDS011;3240;48.790;9.210;2022-12-07T00:03:21;11.70;;;6.40;;
6414;SDS011;3240;48.790;9.210;2022-12-07T00:05:49;11.90;;;6.17;;
6414;SDS011;3240;48.790;9.210;2022-12-07T00:08:17;10.97;;;6.23;;
6414;SDS011;3240;48.790;9.210;2022-12-07T00:10:45;10.30;;;6.80;;
6414;SDS011;3240;48.790;9.210;2022-12-07T00:13:13;11.07;;;5.83;;
6414;SDS011;3240;48.790;9.210;2022-12-07T00:15:41;9.87;;;6.33;;
6414;SDS011;3240;48.790;9.210;2022-12-07T00:18:09;10.03;;;6.40;;
6414;SDS011;3240;48.790;9.210;2022-12-07T00:20:37;8.50;;;5.87;;
6414;SDS011;3240;48.790;9.210;2022-12-07T00:23:05;10.77;;;6.83;;
6414;SDS011;3240;48.790;9.210;2022-12-07T00:25:33;10.17;;;6.90;;
6414;SDS011;3240;48.790;9.210;2022-12-07T00:28:01;10.48;;;8.27;;
6414;SDS011;3240;48.790;9.210;2022-12-07T00:30:29;11.10;;;7.23;;
6414;SDS011;3240;48.790;9.210;2022-12-07T00:32:57;12.67;;;7.37;;
6414;SDS011;3240;48.790;9.210;2022-12-07T00:35:25;13.37;;;7.40;;
6414;SDS011;3240;48.790;9.210;2022-12-07T00:37:53;13.83;;;7.20;;
6414;SDS011;3240;48.790;9.210;2022-12-07T00:40:21;11.20;;;7.80;;
6414;SDS011;3240;48.790;9.210;2022-12-07T00:42:49;9.73;;;6.97;;
6414;SDS011;3240;48.790;9.210;2022-12-07T00:45:17;11.13;;;7.30;;
6414;SDS011;3240;48.790;9.210;2022-12-07T00:47:45;14.13;;;6.90;;
6414;SDS011;3240;48.790;9.210;2022-12-07T00:50:13;9.97;;;6.90;;
6414;SDS011;3240;48.790;9.210;2022-12-07T00:52:42;14.70;;;7.10;;
6414;SDS011;3240;48.790;9.210;2022-12-07T00:55:10;10.50;;;7.20;;
6414;SDS011;3240;48.790;9.210;2022-12-07T00:57:38;10.83;;;6.87;;
6414;SDS011;3240;48.790;9.210;2022-12-07T01:00:06;13.20;;;7.23;;
6414;SDS011;3240;48.790;9.210;2022-12-07T01:02:34;10.30;;;6.83;;
6414;SDS011;3240;48.790;9.210;2022-12-07T01:05:02;11.73;;;7.07;;
6414;SDS011;3240;48.790;9.210;2022-12-07T01:07:30;14.70;;;8.90;;
6414;SDS011;3240;48.790;9.210;2022-12-07T01:09:58;12.00;;;7.13;;
6414;SDS011;3240;48.790;9.210;2022-12-07T01:12:26;12.80;;;7.80;;
6414;SDS011;3240;48.790;9.210;2022-12-07T01:14:54;13.53;;;7.60;;
6414;SDS011;3240;48.790;9.210;2022-12-07T01:17:22;13.67;;;8.00;;
6414;SDS011;3240;48.790;9.210;2022-12-07T01:19:50;12.70;;;7.53;;
6414;SDS011;3240;48.790;9.210;2022-12-07T01:22:18;15.23;;;7.90;;
6414;SDS011;3240;48.790;9.210;2022-12-07T01:24:46;13.07;;;8.20;;
6414;SDS011;3240;48.790;9.210;2022-12-07T01:27:14;13.33;;;8.10;;
6414;SDS011;3240;48.790;9.210;2022-12-07T01:29:42;12.53;;;7.80;;
6414;SDS011;3240;48.790;9.210;2022-12-07T01:32:10;13.47;;;7.93;;
6414;SDS011;3240;48.790;9.210;2022-12-07T01:34:39;15.27;;;8.90;;
6414;SDS011;3240;48.790;9.210;2022-12-07T01:37:07;13.30;;;8.47;;
6414;SDS011;3240;48.790;9.210;2022-12-07T01:39:35;13.97;;;7.70;;
6414;SDS011;3240;48.790;9.210;2022-12-07T01:42:03;13.93;;;8.80;;
6414;SDS011;3240;48.790;9.210;2022-12-07T01:44:32;16.33;;;8.33;;
6414;SDS011;3240;48.790;9.210;2022-12-07T01:47:02;19.10;;;7.00;;
6414;SDS011;3240;48.790;9.210;2022-12-07T01:49:37;15.47;;;8.43;;
6414;SDS011;3240;48.790;9.210;2022-12-07T01:52:13;15.00;;;8.00;;
6414;SDS011;3240;48.790;9.210;2022-12-07T01:54:39;14.35;;;9.15;;
6414;SDS011;3240;48.790;9.210;2022-12-07T01:57:07;13.80;;;8.00;;
6414;SDS011;3240;48.790;9.210;2022-12-07T01:59:35;12.23;;;7.70;;
6414;SDS011;3240;48.790;9.210;2022-12-07T02:02:04;12.37;;;7.73;;
6414;SDS011;3240;48.790;9.210;2022-12-07T02:04:31;12.77;;;7.90;;
6414;SDS011;3240;48.790;9.210;2022-12-07T02:06:59;13.23;;;7.83;;
6414;SDS011;3240;48.790;9.210;2022-12-07T02:09:27;13.00;;;7.60;;
6414;SDS011;3240;48.790;9.210;2022-12-07T02:11:55;13.73;;;7.80;;
6414;SDS011;3240;48.790;9.210;2022-12-07T02:14:23;14.00;;;8.73;;
6414;SDS011;3240;48.790;9.210;2022-12-07T02:19:43;13.80;;;8.40;;
6414;SDS011;3240;48.790;9.210;2022-12-07T02:22:31;14.33;;;7.40;;
6414;SDS011;3240;48.790;9.210;2022-12-07T02:24:54;11.70;;;8.03;;
6414;SDS011;3240;48.790;9.210;2022-12-07T02:27:27;12.80;;;7.47;;
6414;SDS011;3240;48.790;9.210;2022-12-07T02:30:06;13.10;;;8.33;;
6414;SDS011;3240;48.790;9.210;2022-12-07T02:32:42;13.30;;;8.47;;
6414;SDS011;3240;48.790;9.210;2022-12-07T02:35:13;12.63;;;8.23;;
6414;SDS011;3240;48.790;9.210;2022-12-07T02:38:15;14.43;;;8.60;;
6414;SDS011;3240;48.790;9.210;2022-12-07T02:40:27;11.20;;;7.63;;
6414;SDS011;3240;48.790;9.210;2022-12-07T02:42:55;13.73;;;7.97;;
6414;SDS011;3240;48.790;9.210;2022-12-07T02:45:22;17.10;;;8.10;;
6414;SDS011;3240;48.790;9.210;2022-12-07T02:47:50;13.67;;;8.07;;
6414;SDS011;3240;48.790;9.210;2022-12-07T02:50:19;14.50;;;8.20;;
6414;SDS011;3240;48.790;9.210;2022-12-07T02:52:45;13.00;;;7.73;;
6414;SDS011;3240;48.790;9.210;2022-12-07T02:55:14;13.80;;;8.30;;
6414;SDS011;3240;48.790;9.210;2022-12-07T02:57:45;12.37;;;7.80;;
6414;SDS011;3240;48.790;9.210;2022-12-07T03:00:11;13.10;;;8.40;;
6414;SDS011;3240;48.790;9.210;2022-12-07T03:02:43;14.50;;;8.43;;
6414;SDS011;3240;48.790;9.210;2022-12-07T03:05:12;15.90;;;9.10;;
6414;SDS011;3240;48.790;9.210;2022-12-07T03:07:45;13.87;;;7.33;;
6414;SDS011;3240;48.790;9.210;2022-12-07T03:10:16;13.13;;;7.63;;
6414;SDS011;3240;48.790;9.210;2022-12-07T03:12:44;13.00;;;7.80;;
6414;SDS011;3240;48.790;9.210;2022-12-07T03:15:26;13.50;;;8.07;;
6414;SDS011;3240;48.790;9.210;2022-12-07T03:17:53;15.10;;;8.70;;
6414;SDS011;3240;48.790;9.210;2022-12-07T03:20:21;13.07;;;7.40;;
6414;SDS011;3240;48.790;9.210;2022-12-07T03:22:49;11.97;;;7.90;;
6414;SDS011;3240;48.790;9.210;2022-12-07T03:25:17;15.97;;;8.73;;
6414;SDS011;3240;48.790;9.210;2022-12-07T03:27:49;13.13;;;8.10;;
6414;SDS011;3240;48.790;9.210;2022-12-07T03:30:17;14.70;;;8.03;;
6414;SDS011;3240;48.790;9.210;2022-12-07T03:32:46;13.87;;;7.77;;
6414;SDS011;3240;48.790;9.210;2022-12-07T03:37:51;16.07;;;8.00;;
6414;SDS011;3240;48.790;9.210;2022-12-07T03:40:24;13.37;;;8.30;;
6414;SDS011;3240;48.790;9.210;2022-12-07T03:42:50;15.37;;;7.77;;
6414;SDS011;3240;48.790;9.210;2022-12-07T03:45:18;14.70;;;8.60;;
6414;SDS011;3240;48.790;9.210;2022-12-07T03:47:54;14.23;;;7.87;;
6414;SDS011;3240;48.790;9.210;2022-12-07T03:50:31;16.17;;;8.80;;
6414;SDS011;3240;48.790;9.210;2022-12-07T03:53:04;12.80;;;7.30;;
6414;SDS011;3240;48.790;9.210;2022-12-07T03:55:32;14.67;;;7.87;;
6414;SDS011;3240;48.790;9.210;2022-12-07T03:58:00;14.33;;;8.43;;
6414;SDS011;3240;48.790;9.210;2022-12-07T04:00:27;12.87;;;8.40;;
6414;SDS011;3240;48.790;9.210;2022-12-07T04:02:55;13.57;;;8.60;;
6414;SDS011;3240;48.790;9.210;2022-12-07T04:05:23;11.80;;;8.13;;
6414;SDS011;3240;48.790;9.210;2022-12-07T04:07:51;15.33;;;8.27;;
6414;SDS011;3240;48.790;9.210;2022-12-07T04:10:19;12.47;;;7.77;;
6414;SDS011;3240;48.790;9.210;2022-12-07T04:12:47;12.73;;;7.97;;
6414;SDS011;3240;48.790;9.210;2022-12-07T04:15:15;11.90;;;7.30;;
6414;SDS011;3240;48.790;9.210;2022-12-07T04:17:43;11.43;;;7.70;;
6414;SDS011;3240;48.790;9.210;2022-12-07T04:20:11;16.87;;;8.37;;
6414;SDS011;3240;48.790;9.210;2022-12-07T04:22:39;11.33;;;7.40;;
6414;SDS011;3240;48.790;9.210;2022-12-07T04:25:08;12.60;;;7.80;;
6414;SDS011;3240;48.790;9.210;2022-12-07T04:27:36;13.60;;;7.47;;
6414;SDS011;3240;48.790;9.210;2022-12-07T04:30:04;12.57;;;7.77;;
6414;SDS011;3240;48.790;9.210;2022-12-07T04:32:32;19.80;;;8.77;;
6414;SDS011;3240;48.790;9.210;2022-12-07T04:35:00;14.90;;;8.67;;
6414;SDS011;3240;48.790;9.210;2022-12-07T04:37:28;14.43;;;8.10;;
6414;SDS011;3240;48.790;9.210;2022-12-07T04:39:56;15.20;;;8.50;;
6414;SDS011;3240;48.790;9.210;2022-12-07T04:42:24;11.20;;;6.87;;
6414;SDS011;3240;48.790;9.210;2022-12-07T04:44:52;13.33;;;7.40;;
6414;SDS011;3240;48.790;9.210;2022-12-07T04:47:20;12.45;;;7.82;;
6414;SDS011;3240;48.790;9.210;2022-12-07T04:49:48;11.27;;;7.10;;
6414;SDS011;3240;48.790;9.210;2022-12-07T04:52:16;13.13;;;7.10;;
6414;SDS011;3240;48.790;9.210;2022-12-07T04:54:45;11.43;;;6.90;;
6414;SDS011;3240;48.790;9.210;2022-12-07T04:57:13;14.50;;;8.63;;
6414;SDS011;3240;48.790;9.210;2022-12-07T04:59:41;19.37;;;6.97;;
6414;SDS011;3240;48.790;9.210;2022-12-07T05:02:09;10.00;;;5.80;;
6414;SDS011;3240;48.790;9.210;2022-12-07T05:04:37;9.17;;;5.93;;
6414;SDS011;3240;48.790;9.210;2022-12-07T05:07:05;11.97;;;6.70;;
6414;SDS011;3240;48.790;9.210;2022-12-07T05:09:33;12.67;;;6.70;;
6414;SDS011;3240;48.790;9.210;2022-12-07T05:12:01;14.47;;;6.90;;
6414;SDS011;3240;48.790;9.210;2022-12-07T05:14:29;11.10;;;6.63;;
6414;SDS011;3240;48.790;9.210;2022-12-07T05:16:57;16.40;;;7.77;;
6414;SDS011;3240;48.790;9.210;2022-12-07T05:19:25;10.97;;;6.60;;
6414;SDS011;3240;48.790;9.210;2022-12-07T05:21:53;12.20;;;7.00;;
6414;SDS011;3240;48.790;9.210;2022-12-07T05:24:21;13.00;;;6.70;;
6414;SDS011;3240;48.790;9.210;2022-12-07T05:26:49;12.77;;;6.90;;
6414;SDS011;3240;48.790;9.210;2022-12-07T05:29:17;15.10;;;7.47;;
6414;SDS011;3240;48.790;9.210;2022-12-07T05:31:45;11.13;;;7.27;;
6414;SDS011;3240;48.790;9.210;2022-12-07T05:34:13;10.70;;;6.80;;
6414;SDS011;3240;48.790;9.210;2022-12-07T05:36:41;13.87;;;6.83;;
6414;SDS011;3240;48.790;9.210;2022-12-07T05:39:09;15.83;;;7.63;;
6414;SDS011;3240;48.790;9.210;2022-12-07T05:41:37;10.60;;;7.17;;
6414;SDS011;3240;48.790;9.210;2022-12-07T05:44:11;15.20;;;7.73;;
6414;SDS011;3240;48.790;9.210;2022-12-07T05:46:39;11.37;;;7.40;;
6414;SDS011;3240;48.790;9.210;2022-12-07T05:49:07;11.17;;;7.00;;
6414;SDS011;3240;48.790;9.210;2022-12-07T05:51:35;12.80;;;6.73;;
6414;SDS011;3240;48.790;9.210;2022-12-07T05:54:03;14.70;;;7.70;;
6414;SDS011;3240;48.790;9.210;2022-12-07T05:56:31;12.77;;;8.53;;
6414;SDS011;3240;48.790;9.210;2022-12-07T05:58:59;12.50;;;7.50;;
6414;SDS011;3240;48.790;9.210;2022-12-07T06:01:33;13.20;;;7.67;;
6414;SDS011;3240;48.790;9.210;2022-12-07T06:04:01;13.07;;;7.30;;
6414;SDS011;3240;48.790;9.210;2022-12-07T06:06:29;12.23;;;7.80;;
6414;SDS011;3240;48.790;9.210;2022-12-07T06:08:57;16.83;;;8.40;;
6414;SDS011;3240;48.790;9.210;2022-12-07T06:11:25;15.23;;;8.20;;
6414;SDS011;3240;48.790;9.210;2022-12-07T06:13:59;13.55;;;8.35;;
6414;SDS011;3240;48.790;9.210;2022-12-07T06:16:27;11.37;;;8.00;;
6414;SDS011;3240;48.790;9.210;2022-12-07T06:18:55;14.40;;;7.80;;
6414;SDS011;3240;48.790;9.210;2022-12-07T06:21:23;14.03;;;7.80;;
6414;SDS011;3240;48.790;9.210;2022-12-07T06:23:51;12.10;;;8.10;;
6414;SDS011;3240;48.790;9.210;2022-12-07T06:26:19;13.20;;;7.37;;
6414;SDS011;3240;48.790;9.210;2022-12-07T06:28:47;13.23;;;7.77;;
6414;SDS011;3240;48.790;9.210;2022-12-07T06:31:15;18.03;;;8.20;;
6414;SDS011;3240;48.790;9.210;2022-12-07T06:33:43;15.97;;;8.30;;
6414;SDS011;3240;48.790;9.210;2022-12-07T06:36:11;15.97;;;8.70;;
6414;SDS011;3240;48.790;9.210;2022-12-07T06:38:39;11.10;;;7.10;;
6414;SDS011;3240;48.790;9.210;2022-12-07T06:41:07;14.90;;;7.90;;
6414;SDS011;3240;48.790;9.210;2022-12-07T06:43:35;14.03;;;7.30;;
6414;SDS011;3240;48.790;9.210;2022-12-07T06:46:03;13.87;;;8.20;;
6414;SDS011;3240;48.790;9.210;2022-12-07T06:48:31;13.60;;;7.90;;
6414;SDS011;3240;48.790;9.210;2022-12-07T06:51:01;14.33;;;7.63;;
6414;SDS011;3240;48.790;9.210;2022-12-07T06:53:29;12.47;;;7.07;;
6414;SDS011;3240;48.790;9.210;2022-12-07T06:55:57;14.70;;;8.83;;
6414;SDS011;3240;48.790;9.210;2022-12-07T06:58:25;12.50;;;7.53;;
6414;SDS011;3240;48.790;9.210;2022-12-07T07:00:53;14.70;;;7.90;;
6414;SDS011;3240;48.790;9.210;2022-12-07T07:03:21;13.70;;;7.50;;
6414;SDS011;3240;48.790;9.210;2022-12-07T07:05:49;13.93;;;7.83;;
6414;SDS011;3240;48.790;9.210;2022-12-07T07:08:18;16.53;;;8.10;;
6414;SDS011;3240;48.790;9.210;2022-12-07T07:10:46;17.20;;;7.87;;
6414;SDS011;3240;48.790;9.210;2022-12-07T07:13:14;11.53;;;6.87;;
6414;SDS011;3240;48.790;9.210;2022-12-07T07:15:42;8.83;;;6.30;;
6414;SDS011;3240;48.790;9.210;2022-12-07T07:18:10;9.33;;;5.90;;
6414;SDS011;3240;48.790;9.210;2022-12-07T07:20:38;10.90;;;6.50;;
6414;SDS011;3240;48.790;9.210;2022-12-07T07:23:06;9.90;;;6.18;;
6414;SDS011;3240;48.790;9.210;2022-12-07T07:25:34;10.70;;;6.10;;
6414;SDS011;3240;48.790;9.210;2022-12-07T07:28:02;9.00;;;5.07;;
6414;SDS011;3240;48.790;9.210;2022-12-07T07:30:30;8.80;;;5.30;;
6414;SDS011;3240;48.790;9.210;2022-12-07T07:33:00;7.70;;;5.13;;
6414;SDS011;3240;48.790;9.210;2022-12-07T07:35:27;8.40;;;4.90;;
6414;SDS011;3240;48.790;9.210;2022-12-07T07:37:54;9.70;;;5.57;;
6414;SDS011;3240;48.790;9.210;2022-12-07T07:40:22;8.88;;;5.15;;
6414;SDS011;3240;48.790;9.210;2022-12-07T07:42:51;6.90;;;4.73;;
6414;SDS011;3240;48.790;9.210;2022-12-07T07:45:18;11.70;;;4.67;;
6414;SDS011;3240;48.790;9.210;2022-12-07T07:47:46;8.40;;;4.47;;
6414;SDS011;3240;48.790;9.210;2022-12-07T07:50:14;6.70;;;4.13;;
6414;SDS011;3240;48.790;9.210;2022-12-07T07:52:42;8.00;;;4.93;;
6414;SDS011;3240;48.790;9.210;2022-12-07T07:55:11;8.17;;;4.07;;
6414;SDS011;3240;48.790;9.210;2022-12-07T07:57:39;7.07;;;4.57;;
6414;SDS011;3240;48.790;9.210;2022-12-07T08:00:08;10.67;;;5.50;;
6414;SDS011;3240;48.790;9.210;2022-12-07T08:02:35;8.57;;;4.60;;
6414;SDS011;3240;48.790;9.210;2022-12-07T08:05:03;9.27;;;5.70;;
6414;SDS011;3240;48.790;9.210;2022-12-07T08:07:31;10.80;;;5.30;;
6414;SDS011;3240;48.790;9.210;2022-12-07T08:09:59;7.83;;;4.60;;
6414;SDS011;3240;48.790;9.210;2022-12-07T08:12:27;9.37;;;5.47;;
6414;SDS011;3240;48.790;9.210;2022-12-07T08:14:55;6.57;;;4.13;;
6414;SDS011;3240;48.790;9.210;2022-12-07T08:17:24;7.40;;;4.23;;
6414;SDS011;3240;48.790;9.210;2022-12-07T08:19:52;8.17;;;4.33;;
6414;SDS011;3240;48.790;9.210;2022-12-07T08:22:20;9.33;;;4.30;;
6414;SDS011;3240;48.790;9.210;2022-12-07T08:24:48;6.73;;;4.20;;
6414;SDS011;3240;48.790;9.210;2022-12-07T08:27:16;9.40;;;4.43;;
6414;SDS011;3240;48.790;9.210;2022-12-07T08:29:44;7.30;;;4.20;;
6414;SDS011;3240;48.790;9.210;2022-12-07T08:32:12;5.60;;;4.17;;
6414;SDS011;3240;48.790;9.210;2022-12-07T08:34:40;9.67;;;5.00;;
6414;SDS011;3240;48.790;9.210;2022-12-07T08:37:08;8.40;;;4.90;;
6414;SDS011;3240;48.790;9.210;2022-12-07T08:39:36;8.40;;;4.47;;
6414;SDS011;3240;48.790;9.210;2022-12-07T08:42:04;8.70;;;4.90;;
6414;SDS011;3240;48.790;9.210;2022-12-07T08:44:32;8.30;;;5.00;;
6414;SDS011;3240;48.790;9.210;2022-12-07T08:47:01;8.50;;;5.23;;
6414;SDS011;3240;48.790;9.210;2022-12-07T08:49:32;9.95;;;5.20;;
6414;SDS011;3240;48.790;9.210;2022-12-07T08:51:59;9.00;;;4.90;;
6414;SDS011;3240;48.790;9.210;2022-12-07T08:54:27;9.20;;;5.47;;
6414;SDS011;3240;48.790;9.210;2022-12-07T08:56:55;7.77;;;4.90;;
6414;SDS011;3240;48.790;9.210;2022-12-07T08:59:23;8.33;;;4.60;;
6414;SDS011;3240;48.790;9.210;2022-12-07T09:01:51;12.37;;;5.77;;
6414;SDS011;3240;48.790;9.210;2022-12-07T09:04:19;9.23;;;4.27;;
6414;SDS011;3240;48.790;9.210;2022-12-07T09:06:47;5.57;;;4.00;;
6414;SDS011;3240;48.790;9.210;2022-12-07T09:09:15;7.53;;;4.30;;
6414;SDS011;3240;48.790;9.210;2022-12-07T09:11:43;8.00;;;4.47;;
6414;SDS011;3240;48.790;9.210;2022-12-07T09:14:11;8.13;;;5.13;;
6414;SDS011;3240;48.790;9.210;2022-12-07T09:16:39;7.07;;;4.80;;
6414;SDS011;3240;48.790;9.210;2022-12-07T09:19:07;11.67;;;4.70;;
6414;SDS011;3240;48.790;9.210;2022-12-07T09:21:35;7.70;;;4.33;;
6414;SDS011;3240;48.790;9.210;2022-12-07T09:24:03;8.07;;;4.90;;
6414;SDS011;3240;48.790;9.210;2022-12-07T09:26:31;8.33;;;4.40;;
6414;SDS011;3240;48.790;9.210;2022-12-07T09:28:59;8.20;;;4.77;;
6414;SDS011;3240;48.790;9.210;2022-12-07T09:31:27;8.10;;;4.33;;
6414;SDS011;3240;48.790;9.210;2022-12-07T09:33:57;8.33;;;3.73;;
6414;SDS011;3240;48.790;9.210;2022-12-07T09:36:24;8.03;;;4.40;;
6414;SDS011;3240;48.790;9.210;2022-12-07T09:38:52;5.70;;;3.17;;
6414;SDS011;3240;48.790;9.210;2022-12-07T09:41:21;5.20;;;2.70;;
6414;SDS011;3240;48.790;9.210;2022-12-07T09:43:49;5.47;;;3.20;;
6414;SDS011;3240;48.790;9.210;2022-12-07T09:46:17;5.40;;;3.07;;
6414;SDS011;3240;48.790;9.210;2022-12-07T09:48:45;6.13;;;3.37;;
6414;SDS011;3240;48.790;9.210;2022-12-07T09:51:15;4.93;;;3.10;;
6414;SDS011;3240;48.790;9.210;2022-12-07T09:53:42;4.37;;;3.00;;
6414;SDS011;3240;48.790;9.210;2022-12-07T09:56:11;5.77;;;2.60;;
6414;SDS011;3240;48.790;9.210;2022-12-07T09:58:39;5.20;;;2.80;;
6414;SDS011;3240;48.790;9.210;2022-12-07T10:01:15;8.73;;;3.40;;
6414;SDS011;3240;48.790;9.210;2022-12-07T10:03:48;5.53;;;3.07;;
6414;SDS011;3240;48.790;9.210;2022-12-07T10:06:15;5.27;;;3.80;;
6414;SDS011;3240;48.790;9.210;2022-12-07T10:08:43;7.20;;;3.33;;
6414;SDS011;3240;48.790;9.210;2022-12-07T10:11:11;5.47;;;3.17;;
6414;SDS011;3240;48.790;9.210;2022-12-07T10:13:40;5.57;;;3.20;;
6414;SDS011;3240;48.790;9.210;2022-12-07T10:16:27;4.43;;;2.93;;
6414;SDS011;3240;48.790;9.210;2022-12-07T10:18:41;6.50;;;3.07;;
6414;SDS011;3240;48.790;9.210;2022-12-07T10:21:14;6.00;;;3.00;;
6414;SDS011;3240;48.790;9.210;2022-12-07T10:23:43;4.20;;;2.80;;
6414;SDS011;3240;48.790;9.210;2022-12-07T10:28:45;3.97;;;2.50;;
6414;SDS011;3240;48.790;9.210;2022-12-07T10:31:17;3.85;;;2.60;;
6414;SDS011;3240;48.790;9.210;2022-12-07T10:33:54;5.43;;;3.10;;
6414;SDS011;3240;48.790;9.210;2022-12-07T10:36:25;4.90;;;3.00;;
6414;SDS011;3240;48.790;9.210;2022-12-07T10:39:01;6.63;;;3.87;;
6414;SDS011;3240;48.790;9.210;2022-12-07T10:41:30;4.70;;;2.80;;
6414;SDS011;3240;48.790;9.210;2022-12-07T10:43:58;3.87;;;2.60;;
6414;SDS011;3240;48.790;9.210;2022-12-07T10:46:32;3.33;;;2.67;;
6414;SDS011;3240;48.790;9.210;2022-12-07T10:49:02;5.97;;;2.90;;
6414;SDS011;3240;48.790;9.210;2022-12-07T10:51:36;6.67;;;3.17;;
6414;SDS011;3240;48.790;9.210;2022-12-07T10:54:04;6.33;;;3.90;;
6414;SDS011;3240;48.790;9.210;2022-12-07T10:56:35;5.37;;;3.17;;
6414;SDS011;3240;48.790;9.210;2022-12-07T10:59:10;5.07;;;3.00;;
6414;SDS011;3240;48.790;9.210;2022-12-07T11:01:36;8.03;;;3.30;;
6414;SDS011;3240;48.790;9.210;2022-12-07T11:04:15;8.60;;;4.00;;
6414;SDS011;3240;48.790;9.210;2022-12-07T11:06:47;6.13;;;3.00;;
6414;SDS011;3240;48.790;9.210;2022-12-07T11:11:53;4.33;;;2.77;;
6414;SDS011;3240;48.790;9.210;2022-12-07T11:14:25;5.70;;;3.57;;
6414;SDS011;3240;48.790;9.210;2022-12-07T11:16:52;5.90;;;3.87;;
6414;SDS011;3240;48.790;9.210;2022-12-07T11:22:13;5.70;;;3.13;;
6414;SDS011;3240;48.790;9.210;2022-12-07T11:27:30;5.50;;;3.63;;
6414;SDS011;3240;48.790;9.210;2022-12-07T11:35:26;3.20;;;2.60;;
6414;SDS011;3240;48.790;9.210;2022-12-07T11:37:55;3.00;;;2.33;;
6414;SDS011;3240;48.790;9.210;2022-12-07T11:40:27;4.03;;;2.37;;
6414;SDS011;3240;48.790;9.210;2022-12-07T11:43:04;4.60;;;2.53;;
6414;SDS011;3240;48.790;9.210;2022-12-07T11:45:32;2.57;;;2.00;;
6414;SDS011;3240;48.790;9.210;2022-12-07T11:48:02;4.97;;;2.33;;
6414;SDS011;3240;48.790;9.210;2022-12-07T11:50:32;3.00;;;2.03;;
6414;SDS011;3240;48.790;9.210;2022-12-07T11:58:34;3.90;;;3.30;;
6414;SDS011;3240;48.790;9.210;2022-12-07T12:00:58;4.37;;;2.60;;
6414;SDS011;3240;48.790;9.210;2022-12-07T12:03:26;6.00;;;3.53;;
6414;SDS011;3240;48.790;9.210;2022-12-07T12:05:51;5.07;;;3.63;;
6414;SDS011;3240;48.790;9.210;2022-12-07T12:08:27;5.33;;;3.33;;
6414;SDS011;3240;48.790;9.210;2022-12-07T12:11:00;5.97;;;4.20;;
6414;SDS011;3240;48.790;9.210;2022-12-07T12:21:16;4.50;;;3.50;;
6414;SDS011;3240;48.790;9.210;2022-12-07T12:23:44;6.83;;;3.90;;
6414;SDS011;3240;48.790;9.210;2022-12-07T12:26:16;10.57;;;4.70;;
6414;SDS011;3240;48.790;9.210;2022-12-07T12:28:48;7.43;;;4.00;;
6414;SDS011;3240;48.790;9.210;2022-12-07T12:31:14;10.40;;;4.03;;
6414;SDS011;3240;48.790;9.210;2022-12-07T12:33:44;5.83;;;4.30;;
6414;SDS011;3240;48.790;9.210;2022-12-07T12:36:18;5.93;;;4.60;;
6414;SDS011;3240;48.790;9.210;2022-12-07T12:38:50;6.10;;;4.67;;
6414;SDS011;3240;48.790;9.210;2022-12-07T12:43:51;7.70;;;4.60;;
6414;SDS011;3240;48.790;9.210;2022-12-07T12:48:54;8.77;;;4.53;;
6414;SDS011;3240;48.790;9.210;2022-12-07T12:56:35;7.07;;;4.73;;
6414;SDS011;3240;48.790;9.210;2022-12-07T13:01:38;7.23;;;4.00;;
6414;SDS011;3240;48.790;9.210;2022-12-07T13:04:14;26.50;;;6.00;;
6414;SDS011;3240;48.790;9.210;2022-12-07T13:06:34;8.20;;;4.77;;
6414;SDS011;3240;48.790;9.210;2022-12-07T13:09:02;4.50;;;3.20;;
6414;SDS011;3240;48.790;9.210;2022-12-07T13:11:32;7.60;;;4.20;;
6414;SDS011;3240;48.790;9.210;2022-12-07T13:16:36;5.43;;;3.67;;
6414;SDS011;3240;48.790;9.210;2022-12-07T13:19:26;7.80;;;3.63;;
6414;SDS011;3240;48.790;9.210;2022-12-07T13:21:41;6.70;;;3.53;;
6414;SDS011;3240;48.790;9.210;2022-12-07T13:24:10;4.33;;;3.20;;
6414;SDS011;3240;48.790;9.210;2022-12-07T13:26:37;5.00;;;3.40;;
6414;SDS011;3240;48.790;9.210;2022-12-07T13:29:14;5.47;;;3.57;;
6414;SDS011;3240;48.790;9.210;2022-12-07T13:31:46;6.30;;;3.93;;
6414;SDS011;3240;48.790;9.210;2022-12-07T13:36:50;5.43;;;3.77;;
6414;SDS011;3240;48.790;9.210;2022-12-07T13:39:22;6.37;;;4.77;;
6414;SDS011;3240;48.790;9.210;2022-12-07T13:41:53;9.80;;;4.60;;
6414;SDS011;3240;48.790;9.210;2022-12-07T13:44:20;7.23;;;3.83;;
6414;SDS011;3240;48.790;9.210;2022-12-07T13:46:51;7.27;;;3.77;;
6414;SDS011;3240;48.790;9.210;2022-12-07T13:49:22;6.53;;;4.37;;
6414;SDS011;3240;48.790;9.210;2022-12-07T13:51:56;9.80;;;4.10;;
6414;SDS011;3240;48.790;9.210;2022-12-07T13:54:25;7.00;;;4.33;;
6414;SDS011;3240;48.790;9.210;2022-12-07T13:57:04;7.13;;;4.07;;
6414;SDS011;3240;48.790;9.210;2022-12-07T14:05:16;9.63;;;5.23;;
6414;SDS011;3240;48.790;9.210;2022-12-07T14:10:34;8.50;;;4.60;;
6414;SDS011;3240;48.790;9.210;2022-12-07T14:13:03;14.23;;;5.40;;
6414;SDS011;3240;48.790;9.210;2022-12-07T14:15:30;8.47;;;4.30;;
6414;SDS011;3240;48.790;9.210;2022-12-07T14:17:58;8.53;;;4.33;;
6414;SDS011;3240;48.790;9.210;2022-12-07T14:25:45;12.97;;;5.20;;
6414;SDS011;3240;48.790;9.210;2022-12-07T14:30:57;7.10;;;4.27;;
6414;SDS011;3240;48.790;9.210;2022-12-07T14:33:25;7.00;;;4.10;;
6414;SDS011;3240;48.790;9.210;2022-12-07T14:35:53;8.37;;;4.87;;
6414;SDS011;3240;48.790;9.210;2022-12-07T14:38:24;7.43;;;4.50;;
6414;SDS011;3240;48.790;9.210;2022-12-07T14:40:52;6.27;;;4.20;;
6414;SDS011;3240;48.790;9.210;2022-12-07T14:43:20;7.90;;;4.47;;
6414;SDS011;3240;48.790;9.210;2022-12-07T14:45:48;11.57;;;4.77;;
6414;SDS011;3240;48.790;9.210;2022-12-07T14:48:16;22.77;;;6.73;;
6414;SDS011;3240;48.790;9.210;2022-12-07T14:50:44;10.60;;;5.70;;
6414;SDS011;3240;48.790;9.210;2022-12-07T14:53:13;12.90;;;5.67;;
6414;SDS011;3240;48.790;9.210;2022-12-07T14:55:40;12.43;;;6.20;;
6414;SDS011;3240;48.790;9.210;2022-12-07T14:58:12;9.43;;;5.60;;
6414;SDS011;3240;48.790;9.210;2022-12-07T15:00:39;10.00;;;4.90;;
6414;SDS011;3240;48.790;9.210;2022-12-07T15:03:07;9.40;;;5.43;;
6414;SDS011;3240;48.790;9.210;2022-12-07T15:05:35;10.43;;;6.43;;
6414;SDS011;3240;48.790;9.210;2022-12-07T15:08:03;7.00;;;4.80;;
6414;SDS011;3240;48.790;9.210;2022-12-07T15:10:32;10.60;;;5.43;;
6414;SDS011;3240;48.790;9.210;2022-12-07T15:13:01;9.23;;;5.50;;
6414;SDS011;3240;48.790;9.210;2022-12-07T15:15:34;8.93;;;4.80;;
6414;SDS011;3240;48.790;9.210;2022-12-07T15:18:02;9.80;;;5.20;;
6414;SDS011;3240;48.790;9.210;2022-12-07T15:20:30;14.30;;;5.67;;
6414;SDS011;3240;48.790;9.210;2022-12-07T15:22:58;10.30;;;5.60;;
6414;SDS011;3240;48.790;9.210;2022-12-07T15:25:26;9.93;;;5.17;;
6414;SDS011;3240;48.790;9.210;2022-12-07T15:27:54;7.10;;;5.10;;
6414;SDS011;3240;48.790;9.210;2022-12-07T15:30:23;8.47;;;4.90;;
6414;SDS011;3240;48.790;9.210;2022-12-07T15:32:51;7.70;;;4.80;;
6414;SDS011;3240;48.790;9.210;2022-12-07T15:35:20;7.43;;;4.40;;
6414;SDS011;3240;48.790;9.210;2022-12-07T15:37:47;8.97;;;4.80;;
6414;SDS011;3240;48.790;9.210;2022-12-07T15:40:15;6.20;;;4.43;;
6414;SDS011;3240;48.790;9.210;2022-12-07T15:42:43;11.23;;;4.60;;
6414;SDS011;3240;48.790;9.210;2022-12-07T15:45:11;9.73;;;5.80;;
6414;SDS011;3240;48.790;9.210;2022-12-07T15:47:40;8.17;;;5.03;;
6414;SDS011;3240;48.790;9.210;2022-12-07T15:50:08;10.10;;;5.57;;
6414;SDS011;3240;48.790;9.210;2022-12-07T15:52:35;9.00;;;5.63;;
6414;SDS011;3240;48.790;9.210;2022-12-07T15:55:04;9.60;;;5.80;;
6414;SDS011;3240;48.790;9.210;2022-12-07T15:57:33;9.27;;;5.50;;
6414;SDS011;3240;48.790;9.210;2022-12-07T16:00:01;9.40;;;5.40;;
6414;SDS011;3240;48.790;9.210;2022-12-07T16:02:29;10.60;;;5.73;;
6414;SDS011;3240;48.790;9.210;2022-12-07T16:04:57;8.10;;;4.37;;
6414;SDS011;3240;48.790;9.210;2022-12-07T16:07:26;9.93;;;5.60;;
6414;SDS011;3240;48.790;9.210;2022-12-07T16:09:54;9.50;;;5.80;;
6414;SDS011;3240;48.790;9.210;2022-12-07T16:12:22;8.40;;;5.07;;
6414;SDS011;3240;48.790;9.210;2022-12-07T16:14:51;8.60;;;5.27;;
6414;SDS011;3240;48.790;9.210;2022-12-07T16:17:19;8.37;;;4.97;;
6414;SDS011;3240;48.790;9.210;2022-12-07T16:19:47;11.07;;;6.17;;
6414;SDS011;3240;48.790;9.210;2022-12-07T16:22:16;11.97;;;5.93;;
6414;SDS011;3240;48.790;9.210;2022-12-07T16:24:44;11.13;;;6.03;;
6414;SDS011;3240;48.790;9.210;2022-12-07T16:27:13;14.23;;;6.20;;